• Join FlightAware (Why Join?)
  • Login
  • US Flag 
10:28PM EDT


 

Airport Tracker/Info


-or-


 

Live Flight TrackerFlight Track Log ✈ JBU56 ✈ 27-Jul-2013 ✈ KIAD - KBOS

Flight Track Log - Related Links

Times and Time Zones

All times are in EDT time to prevent confusion due to time zone crossing. See the JBU56 flight status page for this flight to view local times or setup timezone preferences in your user account.

Time Position Orientation Groundspeed Altitude Reporting Facility
EDT Latitude Longitude Course Direction KTS MPH feet Rate Location/Type
09:01AM 38.9667 -77.5167 74° East 174 200 2,100  Level Potomac TRACON
09:02AM 39.0000 -77.5667 311° West 235 270 4,200 2,520 Climbing Potomac TRACON
09:03AM 39.0306 -76.9485 77° East  Level FlightAware Approximate
09:03AM 39.0833 -77.5667 360° North 290 334 7,000  Level Potomac TRACON
09:03AM 39.1167 -77.4833 63° Northeast 307 353 9,800 1,560 Climbing Potomac TRACON
09:04AM 39.0527 -76.8174 78° East  Level FlightAware Approximate
09:04AM 39.1500 -77.3833 67° East 322 371 10,000  Level Potomac TRACON
09:05AM 39.0667 -76.6849 90° East  Level FlightAware Approximate
09:05AM 39.1333 -77.2500 99° East 360 414 10,500  Level Potomac TRACON
09:06AM 39.0854 -76.5573 74° East  Level FlightAware Approximate
09:07AM 39.0919 -77.0731 107° East 366 421 14,700  Level Washington Center
09:08AM 39.0642 -76.9389 105° East 382 440 17,000 2,160 Climbing Washington Center
09:09AM 39.0700 -76.8000 87° East 382 440 19,000 1,980 Climbing Washington Center
09:10AM 39.0922 -76.6506 79° East 389 448 21,000 1,740 Climbing Washington Center
09:11AM 39.1122 -76.5011 80° East 409 471 22,600 960 Climbing Washington Center
09:12AM 39.1342 -76.3408 80° East 430 495 23,000 180 Climbing Washington Center
09:13AM 39.1558 -76.1883 80° East 437 503 23,000  Level Washington Center
09:14AM 39.1753 -76.0281 81° East 442 509 23,000 840 Level Washington Center
09:15AM 39.2069 -75.8728 75° East 448 516 24,700 1,500 Climbing Washington Center
09:16AM 39.2947 -75.7497 47° Northeast 438 504 26,100 1,440 Climbing Washington Center
09:17AM 39.3886 -75.6292 45° Northeast 451 519 27,700 1,380 Climbing Washington Center
09:18AM 39.4822 -75.5056 46° Northeast 461 531 28,900 1,380 Climbing Washington Center
09:19AM 39.5758 -75.3842 45° Northeast 472 543 30,500 600 Climbing Washington Center
09:21AM 39.7997 -75.0644 48° Northeast 495 570 31,000 120 Climbing New York Center
09:22AM 39.8900 -74.9319 48° Northeast 495 570 31,000  Level New York Center
09:23AM 39.9692 -74.8119 49° Northeast 489 563 31,000  Level New York Center
09:24AM 40.0681 -74.6631 49° Northeast 489 563 31,000  Level New York Center
09:25AM 40.1492 -74.5428 49° Northeast 494 568 31,000  Level New York Center
09:26AM 40.2411 -74.4008 50° Northeast 501 577 31,000  Level New York Center
09:27AM 40.3286 -74.2667 49° Northeast 496 571 31,000  Level New York Center
09:28AM 40.4181 -74.1267 50° Northeast 496 571 31,000 -180 Level New York Center
09:30AM 40.5844 -73.8775 49° Northeast 481 554 30,500 -960 Descending Boston Center
09:31AM 40.6694 -73.7397 51° Northeast 481 554 28,300 -2,340 Descending Boston Center
09:32AM 40.7628 -73.5881 51° Northeast 486 559 26,000 -2,160 Descending Boston Center
09:33AM 40.8453 -73.4553 51° Northeast 476 548 24,100 -1,080 Descending Boston Center
09:34AM 40.9128 -73.3519 49° Northeast 471 542 23,900 -600 Descending Boston Center
09:35AM 40.9994 -73.1936 54° Northeast 457 526 23,000 -480 Descending Boston Center
09:36AM 41.0711 -73.0542 56° Northeast 452 520 23,000  Level Boston Center
09:37AM 41.1386 -72.9086 58° Northeast 457 526 23,000  Level Boston Center
09:38AM 41.2078 -72.7683 57° Northeast 457 526 23,000  Level Boston Center
09:39AM 41.2811 -72.6225 56° Northeast 457 526 23,000  Level Boston Center
09:40AM 41.3500 -72.4789 57° Northeast 462 532 23,000  Level Boston Center
09:41AM 41.4167 -72.3378 58° Northeast 462 532 23,000  Level Boston Center
09:43AM 41.4789 -72.2100 57° Northeast 457 526 23,000 -180 Level Boston Center
09:43AM 41.5453 -72.0297 64° Northeast 451 519 22,700 -1,200 Descending Boston Center
09:44AM 41.5925 -71.8739 68° East 446 513 20,700 -2,160 Descending Boston Center
09:46AM 41.6497 -71.7094 65° Northeast 441 507 18,400 -1,680 Descending Boston Center
09:46AM 41.6928 -71.5811 66° East 433 498 17,400 -2,220 Descending Boston Center
09:47AM 41.7436 -71.4467 63° Northeast 408 470 14,100 -2,580 Descending Boston Center
09:49AM 41.7925 -71.3042 65° Northeast 387 445 11,800 -1,440 Descending Boston Center
09:50AM 41.8331 -71.1947 64° Northeast 370 426 11,000 -420 Descending Boston Center
09:51AM 41.8853 -71.0403 66° East 349 402 11,000  Level Boston Center
09:52AM 41.9108 -70.9253 73° East 329 379 11,000 -120 Level Boston Center
09:53AM 41.9450 -70.8211 66° East 318 366 10,800 -900 Descending Boston Center
09:54AM 41.9956 -70.7222 55° Northeast 311 358 9,200 -1,380 Descending Boston Center
09:55AM 42.0461 -70.6286 54° Northeast 311 358 7,900 -1,320 Descending Boston Center
09:56AM 42.1328 -70.5617 30° Northeast 299 344 6,400 -1,500 Descending Boston Center
09:57AM 42.2028 -70.5147 26° Northeast 288 331 4,900 -780 Descending Boston Center
09:58AM 42.2733 -70.4956 11° North 266 306 4,900  Level Boston Center
09:59AM 42.3361 -70.5133 348° North 239 275 4,900 -60 Level Boston Center
10:00AM 42.3889 -70.5456 336° Northwest 209 241 4,800 -480 Descending Boston Center
10:01AM 42.4067 -70.6181 288° West 187 215 4,000 -780 Descending Boston Center
10:02AM 42.4158 -70.6797 281° West 176 203 3,300 -480 Descending Boston Center
10:04AM 42.4000 -70.8000 260° West 165 190 2,600 -540 Descending KA90
10:05AM 42.3833 -70.8667 251° West 167 192 1,700 -840 Descending KA90
10:06AM 42.3667 -70.9167 246° West 133 153 1,000 -720 Descending KA90
10:07AM 42.3667 -70.9667 270° West 129 148 300 -720 Descending KA90